Time;durP1;ratioP1;P1;durP2;ratioP2;P2;SDS_P1;SDS_P2;PMS_P1;PMS_P2;Temp;Humidity;BMP_temperature;BMP_pressure;BME280_temperature;BME280_humidity;BME280_pressure;Samples;Min_cycle;Max_cycle;Signal;HPM_P1;HPM_P2
2021/08/16 10:08:55;;;;;;;59.55;40.97;;;30.50;44.30;;;;;;4798194;55;28207;-31
2021/08/16 10:13:56;;;;;;;52.42;37.58;;;30.60;44.60;;;;;;4745911;54;2018232;-29
2021/08/16 10:19:07;;;;;;;44.50;30.48;;;30.60;44.20;;;;;;4704716;55;42588;-31
2021/08/16 10:24:31;;;;;;;40.28;26.60;;;30.70;43.60;;;;;;4694098;55;21067;-29
2021/08/16 10:29:33;;;;;;;44.85;26.65;;;30.70;43.40;;;;;;4699203;55;21858;-32
2021/08/16 10:34:37;;;;;;;41.95;25.50;;;30.70;43.00;;;;;;4699142;55;21016;-32
2021/08/16 10:39:44;;;;;;;46.35;23.12;;;30.80;43.00;;;;;;4703912;55;20996;-32
2021/08/16 10:44:50;;;;;;;30.65;17.87;;;30.80;42.30;;;;;;4707322;55;20991;-28
2021/08/16 10:50:06;;;;;;;31.75;18.25;;;30.90;41.60;;;;;;4696548;55;21465;-30
2021/08/16 10:55:25;;;;;;;29.67;17.52;;;30.90;41.70;;;;;;4717843;55;21533;-32
2021/08/16 11:00:26;;;;;;;32.22;18.67;;;30.90;40.90;;;;;;4694161;55;21035;-28
2021/08/16 11:05:32;;;;;;;37.47;20.60;;;30.90;41.10;;;;;;4738499;55;21935;-30
2021/08/16 11:10:43;;;;;;;;;;;30.90;40.70;;;;;;4760649;54;21474;-31
2021/08/16 11:15:46;;;;;;;29.17;19.50;;;30.90;41.20;;;;;;4763490;55;20298;-31
2021/08/16 11:20:58;;;;;;;30.67;19.70;;;30.90;41.60;;;;;;4747886;54;21140;-32
2021/08/16 11:25:59;;;;;;;29.48;18.95;;;30.80;41.80;;;;;;4774125;54;21108;-28
2021/08/16 11:31:03;;;;;;;31.85;19.48;;;30.80;41.90;;;;;;4750758;55;22155;-32
2021/08/16 11:36:12;;;;;;;32.30;18.87;;;30.80;42.20;;;;;;4752481;54;21052;-31
2021/08/16 11:41:15;;;;;;;29.90;18.92;;;30.80;42.40;;;;;;4765327;54;21004;-32
2021/08/16 11:46:17;;;;;;;26.67;18.45;;;30.70;42.50;;;;;;4744859;54;21072;-32
2021/08/16 11:51:19;;;;;;;21.67;17.30;;;30.70;42.70;;;;;;4777575;55;21483;-30
2021/08/16 11:56:20;;;;;;;28.40;18.27;;;30.70;42.90;;;;;;4744178;54;21053;-31
2021/08/16 12:01:21;;;;;;;26.73;15.98;;;30.70;41.20;;;;;;4744296;54;21302;-32
2021/08/16 12:06:25;;;;;;;27.58;17.62;;;30.80;40.00;;;;;;4755353;54;21589;-33
2021/08/16 12:11:25;;;;;;;27.85;18.92;;;30.90;39.00;;;;;;4759548;54;21052;-30
2021/08/16 12:16:32;;;;;;;30.25;20.80;;;30.90;38.70;;;;;;4743306;58;21081;-31
2021/08/16 12:21:33;;;;;;;28.10;19.73;;;31.00;38.30;;;;;;4775201;54;21032;-32
2021/08/16 12:26:38;;;;;;;25.83;17.80;;;31.10;38.20;;;;;;4750792;54;21503;-30
2021/08/16 12:31:39;;;;;;;20.83;15.27;;;31.20;37.40;;;;;;4753266;54;21041;-29
2021/08/16 12:36:50;;;;;;;24.85;16.67;;;31.20;37.80;;;;;;4770709;54;21498;-32
2021/08/16 12:41:51;;;;;;;30.52;17.02;;;31.30;37.30;;;;;;4764607;54;21091;-31
2021/08/16 12:47:04;;;;;;;26.50;17.35;;;31.30;36.60;;;;;;4763476;54;21081;-31
2021/08/16 12:52:05;;;;;;;25.10;16.70;;;31.40;37.40;;;;;;4753267;54;21045;-31
2021/08/16 12:57:06;;;;;;;25.62;16.73;;;31.30;37.90;;;;;;4779302;54;21005;-31
2021/08/16 13:02:07;;;;;;;27.52;18.27;;;31.20;38.50;;;;;;4775436;54;21028;-30
2021/08/16 13:07:07;;;;;;;21.62;16.67;;;31.20;39.30;;;;;;4743107;54;21041;-31
2021/08/16 13:12:09;;;;;;;26.87;17.25;;;31.10;39.90;;;;;;4759659;54;21009;-29
2021/08/16 13:17:10;;;;;;;25.35;17.15;;;31.10;40.50;;;;;;4744753;54;20984;-30
2021/08/16 13:22:12;;;;;;;27.87;20.30;;;31.10;41.00;;;;;;4745155;54;20997;-31
2021/08/16 13:27:13;;;;;;;27.58;19.73;;;31.10;38.30;;;;;;4767983;55;21056;-33
2021/08/16 13:32:14;;;;;;;25.65;19.85;;;31.20;39.00;;;;;;4744390;54;21124;-31
2021/08/16 13:37:15;;;;;;;26.73;20.17;;;31.10;40.10;;;;;;4743467;58;20993;-29
2021/08/16 13:42:16;;;;;;;35.65;23.35;;;31.10;40.50;;;;;;4742533;54;21081;-26
2021/08/16 13:47:17;;;;;;;32.28;23.00;;;31.20;38.60;;;;;;4743023;54;21009;-32
2021/08/16 13:52:18;;;;;;;32.35;23.87;;;31.20;40.00;;;;;;4755158;54;21506;-32
2021/08/16 13:57:18;;;;;;;32.22;22.70;;;31.10;40.60;;;;;;4754531;54;21012;-27
2021/08/16 14:02:19;;;;;;;30.52;22.55;;;31.10;41.40;;;;;;4745234;54;21080;-29
2021/08/16 14:07:20;;;;;;;32.28;22.98;;;31.10;41.90;;;;;;4759252;54;20996;-31
2021/08/16 14:12:21;;;;;;;30.02;22.65;;;31.10;42.40;;;;;;4747194;54;21478;-30
2021/08/16 14:17:22;;;;;;;30.85;22.23;;;31.10;43.20;;;;;;4746362;54;21455;-30
2021/08/16 14:22:23;;;;;;;28.52;21.45;;;31.10;43.70;;;;;;4752833;54;21064;-31
2021/08/16 14:27:24;;;;;;;27.90;20.50;;;31.10;44.40;;;;;;4752798;54;21009;-31
2021/08/16 14:32:25;;;;;;;26.75;21.05;;;31.10;45.00;;;;;;4755841;54;21558;-28
2021/08/16 14:37:25;;;;;;;28.20;20.90;;;31.10;45.80;;;;;;4748876;54;21092;-30
2021/08/16 14:42:26;;;;;;;26.40;20.27;;;31.10;46.00;;;;;;4743016;58;20973;-32
2021/08/16 14:47:28;;;;;;;30.37;21.45;;;31.10;46.50;;;;;;4742060;58;21084;-27
2021/08/16 14:52:29;;;;;;;27.45;21.70;;;31.10;46.90;;;;;;4750482;54;21001;-28
2021/08/16 14:57:30;;;;;;;27.23;20.67;;;31.10;47.40;;;;;;4749179;54;21004;-29
2021/08/16 15:02:31;;;;;;;24.30;20.15;;;31.10;47.60;;;;;;4762679;54;21625;-28
2021/08/16 15:07:33;;;;;;;25.83;21.37;;;31.10;48.10;;;;;;4743084;58;20988;-28
2021/08/16 15:12:34;;;;;;;25.25;20.08;;;31.00;47.90;;;;;;4793860;55;21578;-28
2021/08/16 15:17:35;;;;;;;25.40;21.30;;;31.00;47.80;;;;;;4755720;54;21064;-30
2021/08/16 15:22:36;;;;;;;24.75;20.37;;;30.90;47.70;;;;;;4772539;54;21053;-27
2021/08/16 15:27:37;;;;;;;24.65;20.27;;;30.90;47.70;;;;;;4799097;54;21025;-29
2021/08/16 15:32:38;;;;;;;24.25;20.70;;;30.90;47.70;;;;;;4748663;54;21060;-33
2021/08/16 15:37:40;;;;;;;23.98;20.67;;;30.90;47.70;;;;;;4770629;54;21076;-32
2021/08/16 15:42:48;;;;;;;26.50;19.90;;;30.90;48.10;;;;;;4770504;54;22155;-30
2021/08/16 15:47:49;;;;;;;28.15;20.83;;;30.80;47.60;;;;;;4741957;58;21486;-30
2021/08/16 15:52:49;;;;;;;23.70;19.30;;;30.80;47.70;;;;;;4750829;54;21050;-31
2021/08/16 15:57:50;;;;;;;25.33;21.10;;;30.80;47.70;;;;;;4775378;54;21020;-30
2021/08/16 16:02:51;;;;;;;27.62;21.65;;;30.80;47.70;;;;;;4788797;54;21534;-29
2021/08/16 16:07:52;;;;;;;27.33;20.20;;;30.70;47.60;;;;;;4745492;54;21483;-34
2021/08/16 16:12:53;;;;;;;26.65;20.92;;;30.80;47.80;;;;;;4763948;54;21033;-33
2021/08/16 16:17:54;;;;;;;24.05;20.35;;;30.70;47.60;;;;;;4774721;54;21017;-31
2021/08/16 16:22:55;;;;;;;23.85;19.55;;;30.70;47.70;;;;;;4765004;54;21494;-33
2021/08/16 16:27:56;;;;;;;24.02;20.17;;;30.70;47.80;;;;;;4742811;58;21065;-29
2021/08/16 16:32:57;;;;;;;23.77;19.70;;;30.70;47.90;;;;;;4765660;54;20993;-32
2021/08/16 16:37:58;;;;;;;25.00;20.60;;;30.70;47.90;;;;;;4765599;54;21138;-33
2021/08/16 16:42:58;;;;;;;21.77;18.92;;;30.70;48.00;;;;;;4753688;54;21049;-28
2021/08/16 16:47:59;;;;;;;22.15;19.73;;;30.70;48.00;;;;;;4743072;58;21013;-33
2021/08/16 16:53:00;;;;;;;22.85;20.42;;;30.70;48.10;;;;;;4758048;54;21447;-24
2021/08/16 16:58:05;;;;;;;26.17;20.12;;;30.60;48.00;;;;;;4744024;58;22044;-28
2021/08/16 17:03:06;;;;;;;23.50;19.83;;;30.60;48.10;;;;;;4761808;54;21120;-30
2021/08/16 17:08:07;;;;;;;22.90;19.65;;;30.60;48.10;;;;;;4784373;54;21374;-32
2021/08/16 17:13:08;;;;;;;23.38;19.45;;;30.60;48.10;;;;;;4756647;54;21127;-33
2021/08/16 17:18:09;;;;;;;23.98;20.20;;;30.60;48.10;;;;;;4751707;54;21310;-29
2021/08/16 17:23:10;;;;;;;22.67;19.80;;;30.60;48.20;;;;;;4759932;54;21582;-33
2021/08/16 17:28:11;;;;;;;20.77;18.58;;;30.60;48.20;;;;;;4748334;54;21389;-35
2021/08/16 17:33:11;;;;;;;23.05;19.15;;;30.60;48.20;;;;;;4778637;54;21474;-32
2021/08/16 17:38:12;;;;;;;23.00;19.40;;;30.50;48.30;;;;;;4743348;58;21128;-30
2021/08/16 17:43:13;;;;;;;23.10;19.17;;;30.60;48.30;;;;;;4785754;54;21553;-30
2021/08/16 17:48:14;;;;;;;24.08;19.15;;;30.60;48.30;;;;;;4802233;54;21024;-32
2021/08/16 17:53:15;;;;;;;22.13;19.15;;;30.60;48.30;;;;;;4748981;54;21016;-33
2021/08/16 17:58:15;;;;;;;22.42;19.60;;;30.60;48.30;;;;;;4775290;55;21053;-34
2021/08/16 18:03:16;;;;;;;21.62;19.12;;;30.50;48.30;;;;;;4760556;54;21068;-32
2021/08/16 18:08:17;;;;;;;21.10;18.83;;;30.60;48.40;;;;;;4776036;54;21012;-30
2021/08/16 18:13:19;;;;;;;21.40;18.55;;;30.60;48.40;;;;;;4754258;54;21547;-30
2021/08/16 18:18:20;;;;;;;22.87;19.02;;;30.50;48.40;;;;;;4762415;54;21016;-33
2021/08/16 18:23:20;;;;;;;20.60;18.40;;;30.50;48.40;;;;;;4762755;54;21016;-32
2021/08/16 18:28:21;;;;;;;23.98;18.60;;;30.50;48.80;;;;;;4745376;54;21013;-31
2021/08/16 18:33:22;;;;;;;20.05;18.00;;;30.50;48.50;;;;;;4786233;54;21005;-29
2021/08/16 18:38:23;;;;;;;21.50;18.15;;;30.50;48.60;;;;;;4770280;54;21009;-32
2021/08/16 18:43:24;;;;;;;20.67;18.48;;;30.50;48.60;;;;;;4747160;54;21008;-30
2021/08/16 18:48:24;;;;;;;22.15;18.98;;;30.50;48.60;;;;;;4761996;54;21486;-30
2021/08/16 18:53:25;;;;;;;21.73;18.87;;;30.50;48.70;;;;;;4755129;54;21069;-31
2021/08/16 18:58:26;;;;;;;20.95;17.98;;;30.50;48.80;;;;;;4744086;58;20981;-33
2021/08/16 19:03:28;;;;;;;19.60;17.50;;;30.40;48.70;;;;;;4781101;54;21057;-31
2021/08/16 19:08:29;;;;;;;19.67;17.30;;;30.40;48.80;;;;;;4787745;54;21501;-26
2021/08/16 19:13:30;;;;;;;20.80;18.52;;;30.40;48.90;;;;;;4765173;54;21081;-30
2021/08/16 19:18:31;;;;;;;22.13;17.77;;;30.40;48.90;;;;;;4743803;58;21052;-33
2021/08/16 19:23:32;;;;;;;20.83;18.02;;;30.40;49.50;;;;;;4755623;54;21490;-26
2021/08/16 19:28:33;;;;;;;20.37;17.92;;;30.40;48.90;;;;;;4762546;54;21016;-24
2021/08/16 19:33:34;;;;;;;20.20;17.58;;;30.50;49.00;;;;;;4743918;58;20977;-29
2021/08/16 19:38:35;;;;;;;21.00;17.45;;;30.40;49.10;;;;;;4761344;54;21037;-28
2021/08/16 19:43:36;;;;;;;19.55;17.48;;;30.40;49.00;;;;;;4747035;54;21004;-30
2021/08/16 19:48:37;;;;;;;19.20;17.05;;;30.40;49.10;;;;;;4765829;54;21111;-25
2021/08/16 19:53:38;;;;;;;19.77;17.67;;;30.40;49.10;;;;;;4758434;54;20989;-31
2021/08/16 19:58:39;;;;;;;18.83;16.83;;;30.40;49.10;;;;;;4746259;54;22092;-30
2021/08/16 20:03:41;;;;;;;18.27;16.08;;;30.40;49.20;;;;;;4766977;54;21025;-30
2021/08/16 20:08:42;;;;;;;20.80;17.02;;;30.40;49.20;;;;;;4772684;54;21479;-29
2021/08/16 20:13:44;;;;;;;19.35;16.37;;;30.40;49.20;;;;;;4746885;54;21056;-29
2021/08/16 20:18:45;;;;;;;19.02;16.98;;;30.40;49.30;;;;;;4761657;54;21483;-32
2021/08/16 20:23:46;;;;;;;19.25;16.23;;;30.40;49.30;;;;;;4752583;54;21008;-27
2021/08/16 20:28:46;;;;;;;18.23;15.95;;;30.40;49.40;;;;;;4769367;54;21052;-31
2021/08/16 20:33:47;;;;;;;17.95;16.02;;;30.40;49.40;;;;;;4747480;55;20985;-32
2021/08/16 20:38:48;;;;;;;17.87;15.88;;;30.40;49.40;;;;;;4781210;54;21001;-26
2021/08/16 20:43:49;;;;;;;17.00;15.30;;;30.40;49.40;;;;;;4793334;54;21041;-31
2021/08/16 20:48:50;;;;;;;18.62;16.48;;;30.40;49.40;;;;;;4787917;54;21029;-27
2021/08/16 20:53:51;;;;;;;17.58;15.68;;;30.40;49.50;;;;;;4743902;58;21000;-33
2021/08/16 20:58:51;;;;;;;17.60;15.80;;;30.40;49.50;;;;;;4787902;54;21479;-27
2021/08/16 21:03:53;;;;;;;18.23;15.43;;;30.40;49.50;;;;;;4764349;54;21033;-32
2021/08/16 21:08:56;;;;;;;20.27;16.20;;;30.40;49.50;;;;;;4773261;54;21004;-29
2021/08/16 21:13:57;;;;;;;16.80;15.10;;;30.40;49.60;;;;;;4750435;54;21608;-32
2021/08/16 21:18:58;;;;;;;16.52;14.75;;;30.40;49.50;;;;;;4783591;55;21076;-33
2021/08/16 21:24:03;;;;;;;17.25;15.45;;;30.40;49.50;;;;;;4786111;54;21554;-32
2021/08/16 21:29:04;;;;;;;16.90;14.75;;;30.30;49.50;;;;;;4744225;58;21016;-35
2021/08/16 21:34:04;;;;;;;17.05;15.15;;;30.40;49.60;;;;;;4753726;55;21030;-32
2021/08/16 21:39:05;;;;;;;17.08;14.65;;;30.40;49.60;;;;;;4743952;58;21021;-32
2021/08/16 21:44:07;;;;;;;16.45;14.73;;;30.40;49.60;;;;;;4786658;54;21040;-30
2021/08/16 21:49:08;;;;;;;15.98;14.38;;;30.40;49.60;;;;;;4765477;54;21546;-33
2021/08/16 21:54:09;;;;;;;17.92;14.25;;;30.40;50.20;;;;;;4746878;54;21028;-32
2021/08/16 21:59:10;;;;;;;15.07;13.57;;;30.40;49.50;;;;;;4762319;54;21012;-29
2021/08/16 22:04:10;;;;;;;16.05;14.32;;;30.40;49.60;;;;;;4786209;54;21119;-33
2021/08/16 22:09:11;;;;;;;15.32;13.82;;;30.40;49.60;;;;;;4768738;55;21489;-33
2021/08/16 22:14:12;;;;;;;15.43;13.75;;;30.30;49.80;;;;;;4787120;54;21052;-31
2021/08/16 22:19:13;;;;;;;14.70;13.20;;;30.30;49.60;;;;;;4781759;54;21029;-33
2021/08/16 22:24:13;;;;;;;15.38;13.88;;;30.30;49.50;;;;;;4743867;58;21017;-33
2021/08/16 22:29:14;;;;;;;15.18;13.60;;;30.30;49.50;;;;;;4766267;54;21455;-31
2021/08/16 22:34:15;;;;;;;15.82;13.68;;;30.30;49.50;;;;;;4758239;54;21562;-33
2021/08/16 22:39:16;;;;;;;14.95;13.45;;;30.30;49.50;;;;;;4744079;54;21001;-30
2021/08/16 22:44:17;;;;;;;14.55;13.05;;;30.30;49.50;;;;;;4765156;54;21048;-31
2021/08/16 22:49:18;;;;;;;14.95;13.35;;;30.30;49.50;;;;;;4765778;54;20993;-27
2021/08/16 22:54:18;;;;;;;13.82;12.52;;;30.30;49.50;;;;;;4750216;54;21055;-30
2021/08/16 22:59:19;;;;;;;16.08;13.13;;;30.30;49.50;;;;;;4743967;58;21040;-31
2021/08/16 23:04:20;;;;;;;16.37;13.40;;;30.30;49.50;;;;;;4766741;54;21609;-31
2021/08/16 23:09:21;;;;;;;16.08;13.15;;;30.30;49.60;;;;;;4752558;54;21012;-27
2021/08/16 23:14:22;;;;;;;14.98;12.68;;;30.30;49.50;;;;;;4744354;58;21020;-31
2021/08/16 23:19:23;;;;;;;14.18;12.45;;;30.30;49.50;;;;;;4744089;54;21033;-29
2021/08/16 23:24:24;;;;;;;13.13;11.80;;;30.30;49.50;;;;;;4752901;54;21084;-34
2021/08/16 23:29:24;;;;;;;15.02;11.80;;;30.30;49.50;;;;;;4795427;54;21542;-32
2021/08/16 23:34:26;;;;;;;13.73;12.27;;;30.30;49.60;;;;;;4782962;54;21471;-32
2021/08/16 23:39:26;;;;;;;14.18;12.73;;;30.30;49.50;;;;;;4743957;58;21008;-32
2021/08/16 23:44:27;;;;;;;14.10;12.15;;;30.30;49.50;;;;;;4753778;54;21004;-30
2021/08/16 23:49:30;;;;;;;13.23;11.43;;;30.30;49.50;;;;;;4745381;54;21001;-32
2021/08/16 23:54:35;;;;;;;13.88;11.88;;;30.30;49.60;;;;;;4743871;58;21033;-32
2021/08/16 23:59:36;;;;;;;13.73;12.13;;;30.30;49.50;;;;;;4748487;54;21029;-33
